Aérodrome :







RETROUVEZ-NOUS SUR...

 
LOGIN :

S'inscrire | Disclaimer

   EN    FR    IT 

 









Légende :    VFR   VFR Marginal   IFR   IFR Intensif   IFR Très Intensif
Visi : 
Plafond : 
>= 8 km
>= 3000ft
5 à 8 km
1000 à 3000 ft
1500m à 5 km
500 à 1000 ft
800 à 1500m
200 à 500 ft
< 800m
< 200 ft
Symboles :   Orages  Brouillard  Fortes neiges  Fortes précipitations  Vent > 20 kt






- Altitude de l'aérodrome : 41 ft
- Code IATA : GND


TGPY - Point Salines

DERNIER METAR :
  • 100300Z 10016KT 9999 FEW020 27/24 Q1012 NOSIG

METARs EXPIRÉS :
  • 100200Z 10015G25KT 9999 FEW020 27/24 Q1013 NOSIG
  • 100100Z 10015KT 9999 FEW019 27/24 Q1012

TAF TGPY
Valide du 10 à 00h jusqu'au 11 à 00h UTC


092149Z 1000/1024 09012KT 9999 SCT020
BECMG 1010/1012 10015KT FEW025



MET'MAP, la Météo Aéronautique d'un coup d'oeil ! - Copyright ORBIFLY Décembre 2007 - Disclaimer

ORBIFLY MET'MAP TEAM :

Programmation & Développement : Alexandra Zaïnal
Sur une idée originale de : Baudouin d'Aumeries
Assistance à la programmation : Marc-Olivier Méhu
Soutien technique & logistique : Manuel Goepfert

Contact : metmap@orbifly.com




SOURCES & CREDITS :

   NOAA